Blue Ridge Highway — 3FEY4 — position and weather

sailwx.info

Track history (hours):
 
Tides and Currents Weather Stations Pressure Air Temp Water Temp Dewpoint Dewpoint Depression Visibility Wind Speed Wind Dir Waves Ship Positions

Blue Ridge Highway

Last reported at 2014-Dec-19 21:33 UTC. Time now 2014-Dec-19 21:44 UTC.
Position N 01°55' E 102°20'.

Length 180 m; draft 9 m.

Type: Cargo ship. MMSI: 355558000.

Date/timePositionNaut miles runAvg speedWind from/ knotsBaromVisibWave heightAir tempDewpointWater temp
2014-Dec-19 21:33N 01°55' E 102°20'1615.7
2014-Dec-19 20:33N 01°49' E 102°35'2316.7
2014-Dec-19 19:09N 01°39' E 102°56'5413.6
2014-Dec-19 15:12N 01°17' E 103°45'0 0.6
2014-Dec-19 14:31N 01°17' E 103°45'0 0.0
2014-Dec-19 13:31N 01°17' E 103°45'0 0.0
2014-Dec-19 12:16N 01°17' E 103°45'0 0.0
2014-Dec-19 11:31N 01°17' E 103°45'0 0.0
2014-Dec-19 10:22N 01°17' E 103°45'0 0.0
2014-Dec-19 09:07N 01°17' E 103°45'1 0.3
2014-Dec-19 05:30N 01°16' E 103°45'8 8.2
2014-Dec-19 04:34N 01°14' E 103°53'3 3.1
2014-Dec-19 03:26N 01°17' E 103°54'0 0.0
2014-Dec-19 02:32N 01°17' E 103°54'0 0.1
2014-Dec-19 00:32N 01°17' E 103°54'0 0.0
2014-Dec-18 23:32N 01°17' E 103°54'0 0.1
2014-Dec-18 22:26N 01°17' E 103°54'0 0.0
2014-Dec-18 21:26N 01°17' E 103°54'0 0.0
2014-Dec-18 20:20N 01°17' E 103°54'0 0.0
2014-Dec-18 19:32N 01°17' E 103°54'0 0.0
2014-Dec-18 18:32N 01°17' E 103°54'0 0.0
2014-Dec-18 17:14N 01°17' E 103°54'0 0.1
2014-Dec-18 16:30N 01°17' E 103°54'3 3.5
2014-Dec-18 15:33N 01°13' E 103°53'1110.0
2014-Dec-18 14:28N 01°16' E 104°04'1011.2
2014-Dec-18 13:34N 01°17' E 104°14'  
Track history (hours):
 
Tides and Currents Weather Stations Pressure Air Temp Water Temp Dewpoint Dewpoint Depression Visibility Wind Speed Wind Dir Waves Ship Positions

Blue Ridge Highway

Last reported at 2014-Dec-19 21:33 UTC. Time now 2014-Dec-19 21:44 UTC.
Position N 01°55' E 102°20'.

Length 180 m; draft 9 m.

Type: Cargo ship. MMSI: 355558000.

Date/timePositionNaut miles runAvg speedWind from/ knotsBaromVisibWave heightAir tempDewpointWater temp
2014-Dec-19 21:33N 01°55' E 102°20'1615.7
2014-Dec-19 20:33N 01°49' E 102°35'2316.7
2014-Dec-19 19:09N 01°39' E 102°56'5413.6
2014-Dec-19 15:12N 01°17' E 103°45'0 0.6
2014-Dec-19 14:31N 01°17' E 103°45'0 0.0
2014-Dec-19 13:31N 01°17' E 103°45'0 0.0
2014-Dec-19 12:16N 01°17' E 103°45'0 0.0
2014-Dec-19 11:31N 01°17' E 103°45'0 0.0
2014-Dec-19 10:22N 01°17' E 103°45'0 0.0
2014-Dec-19 09:07N 01°17' E 103°45'1 0.3
2014-Dec-19 05:30N 01°16' E 103°45'8 8.2
2014-Dec-19 04:34N 01°14' E 103°53'3 3.1
2014-Dec-19 03:26N 01°17' E 103°54'0 0.0
2014-Dec-19 02:32N 01°17' E 103°54'0 0.1
2014-Dec-19 00:32N 01°17' E 103°54'0 0.0
2014-Dec-18 23:32N 01°17' E 103°54'0 0.1
2014-Dec-18 22:26N 01°17' E 103°54'0 0.0
2014-Dec-18 21:26N 01°17' E 103°54'0 0.0
2014-Dec-18 20:20N 01°17' E 103°54'0 0.0
2014-Dec-18 19:32N 01°17' E 103°54'0 0.0
2014-Dec-18 18:32N 01°17' E 103°54'0 0.0
2014-Dec-18 17:14N 01°17' E 103°54'0 0.1
2014-Dec-18 16:30N 01°17' E 103°54'3 3.5
2014-Dec-18 15:33N 01°13' E 103°53'1110.0
2014-Dec-18 14:28N 01°16' E 104°04'1011.2
2014-Dec-18 13:34N 01°17' E 104°14'  

Dump ship's entire track history